sensor_id;sensor_type;location;lat;lon;timestamp;P1;durP1;ratioP1;P2;durP2;ratioP2
1308;SDS011;647;48.840;9.314;2024-02-26T00:00:41;58.00;;;3.50;;
1308;SDS011;647;48.840;9.314;2024-02-26T00:03:08;58.17;;;3.10;;
1308;SDS011;647;48.840;9.314;2024-02-26T00:05:35;56.30;;;3.50;;
1308;SDS011;647;48.840;9.314;2024-02-26T00:08:05;59.70;;;3.63;;
1308;SDS011;647;48.840;9.314;2024-02-26T00:10:32;57.30;;;3.77;;
1308;SDS011;647;48.840;9.314;2024-02-26T00:13:00;56.10;;;3.10;;
1308;SDS011;647;48.840;9.314;2024-02-26T00:15:27;56.90;;;3.20;;
1308;SDS011;647;48.840;9.314;2024-02-26T00:17:54;56.87;;;4.00;;
1308;SDS011;647;48.840;9.314;2024-02-26T00:20:21;59.13;;;3.13;;
1308;SDS011;647;48.840;9.314;2024-02-26T00:22:48;58.30;;;4.10;;
1308;SDS011;647;48.840;9.314;2024-02-26T00:25:16;56.53;;;3.63;;
1308;SDS011;647;48.840;9.314;2024-02-26T00:27:43;56.77;;;3.17;;
1308;SDS011;647;48.840;9.314;2024-02-26T00:30:11;57.40;;;3.40;;
1308;SDS011;647;48.840;9.314;2024-02-26T00:32:38;57.10;;;3.53;;
1308;SDS011;647;48.840;9.314;2024-02-26T00:35:05;56.17;;;3.43;;
1308;SDS011;647;48.840;9.314;2024-02-26T00:37:34;57.20;;;3.37;;
1308;SDS011;647;48.840;9.314;2024-02-26T00:40:01;57.30;;;4.17;;
1308;SDS011;647;48.840;9.314;2024-02-26T00:42:30;57.00;;;3.20;;
1308;SDS011;647;48.840;9.314;2024-02-26T00:44:57;57.10;;;3.47;;
1308;SDS011;647;48.840;9.314;2024-02-26T00:47:24;58.03;;;3.80;;
1308;SDS011;647;48.840;9.314;2024-02-26T00:49:51;56.40;;;3.40;;
1308;SDS011;647;48.840;9.314;2024-02-26T00:52:18;56.83;;;3.37;;
1308;SDS011;647;48.840;9.314;2024-02-26T00:54:45;57.87;;;3.40;;
1308;SDS011;647;48.840;9.314;2024-02-26T00:57:12;57.37;;;3.17;;
1308;SDS011;647;48.840;9.314;2024-02-26T00:59:41;55.87;;;3.20;;
1308;SDS011;647;48.840;9.314;2024-02-26T01:02:08;56.93;;;3.27;;
1308;SDS011;647;48.840;9.314;2024-02-26T01:04:35;59.40;;;3.53;;
1308;SDS011;647;48.840;9.314;2024-02-26T01:07:02;56.87;;;3.40;;
1308;SDS011;647;48.840;9.314;2024-02-26T01:09:29;57.40;;;3.50;;
1308;SDS011;647;48.840;9.314;2024-02-26T01:11:56;56.30;;;3.40;;
1308;SDS011;647;48.840;9.314;2024-02-26T01:14:23;56.87;;;3.33;;
1308;SDS011;647;48.840;9.314;2024-02-26T01:16:52;56.87;;;3.20;;
1308;SDS011;647;48.840;9.314;2024-02-26T01:19:19;57.00;;;3.23;;
1308;SDS011;647;48.840;9.314;2024-02-26T01:21:46;57.30;;;3.80;;
1308;SDS011;647;48.840;9.314;2024-02-26T01:24:13;58.20;;;3.70;;
1308;SDS011;647;48.840;9.314;2024-02-26T01:26:40;58.53;;;3.60;;
1308;SDS011;647;48.840;9.314;2024-02-26T01:29:08;57.10;;;3.20;;
1308;SDS011;647;48.840;9.314;2024-02-26T01:31:35;57.07;;;3.37;;
1308;SDS011;647;48.840;9.314;2024-02-26T01:34:03;57.27;;;3.57;;
1308;SDS011;647;48.840;9.314;2024-02-26T01:36:30;56.87;;;3.67;;
1308;SDS011;647;48.840;9.314;2024-02-26T01:38:59;57.17;;;3.57;;
1308;SDS011;647;48.840;9.314;2024-02-26T01:41:28;58.10;;;3.77;;
1308;SDS011;647;48.840;9.314;2024-02-26T01:43:55;56.90;;;3.63;;
1308;SDS011;647;48.840;9.314;2024-02-26T01:46:22;56.93;;;3.70;;
1308;SDS011;647;48.840;9.314;2024-02-26T01:48:50;56.57;;;3.90;;
1308;SDS011;647;48.840;9.314;2024-02-26T01:51:18;58.40;;;4.03;;
1308;SDS011;647;48.840;9.314;2024-02-26T01:53:45;58.20;;;3.57;;
1308;SDS011;647;48.840;9.314;2024-02-26T01:56:12;57.93;;;3.70;;
1308;SDS011;647;48.840;9.314;2024-02-26T01:58:40;57.57;;;3.60;;
1308;SDS011;647;48.840;9.314;2024-02-26T02:01:08;59.40;;;3.63;;
1308;SDS011;647;48.840;9.314;2024-02-26T02:03:35;57.27;;;3.60;;
1308;SDS011;647;48.840;9.314;2024-02-26T02:06:02;56.70;;;3.30;;
1308;SDS011;647;48.840;9.314;2024-02-26T02:08:31;57.33;;;4.03;;
1308;SDS011;647;48.840;9.314;2024-02-26T02:14:03;56.60;;;3.20;;
1308;SDS011;647;48.840;9.314;2024-02-26T02:16:31;57.60;;;3.40;;
1308;SDS011;647;48.840;9.314;2024-02-26T02:18:58;58.07;;;4.23;;
1308;SDS011;647;48.840;9.314;2024-02-26T02:21:26;58.60;;;4.40;;
1308;SDS011;647;48.840;9.314;2024-02-26T02:23:53;57.20;;;3.80;;
1308;SDS011;647;48.840;9.314;2024-02-26T02:26:20;56.97;;;3.30;;
1308;SDS011;647;48.840;9.314;2024-02-26T02:28:48;55.93;;;3.30;;
1308;SDS011;647;48.840;9.314;2024-02-26T02:31:15;56.50;;;3.37;;
1308;SDS011;647;48.840;9.314;2024-02-26T02:33:42;57.00;;;3.80;;
1308;SDS011;647;48.840;9.314;2024-02-26T02:36:10;57.20;;;3.03;;
1308;SDS011;647;48.840;9.314;2024-02-26T02:38:38;61.53;;;3.80;;
1308;SDS011;647;48.840;9.314;2024-02-26T02:41:15;56.80;;;3.20;;
1308;SDS011;647;48.840;9.314;2024-02-26T02:43:42;56.60;;;3.40;;
1308;SDS011;647;48.840;9.314;2024-02-26T02:46:09;58.00;;;3.10;;
1308;SDS011;647;48.840;9.314;2024-02-26T02:48:36;56.73;;;3.40;;
1308;SDS011;647;48.840;9.314;2024-02-26T02:51:04;55.67;;;2.80;;
1308;SDS011;647;48.840;9.314;2024-02-26T02:53:31;57.40;;;3.67;;
1308;SDS011;647;48.840;9.314;2024-02-26T02:55:59;57.50;;;3.00;;
1308;SDS011;647;48.840;9.314;2024-02-26T02:58:26;56.80;;;3.23;;
1308;SDS011;647;48.840;9.314;2024-02-26T03:00:53;57.40;;;3.77;;
1308;SDS011;647;48.840;9.314;2024-02-26T03:03:20;56.93;;;3.40;;
1308;SDS011;647;48.840;9.314;2024-02-26T03:05:49;56.70;;;3.60;;
1308;SDS011;647;48.840;9.314;2024-02-26T03:08:16;57.13;;;3.60;;
1308;SDS011;647;48.840;9.314;2024-02-26T03:10:44;56.50;;;3.10;;
1308;SDS011;647;48.840;9.314;2024-02-26T03:13:12;56.50;;;3.30;;
1308;SDS011;647;48.840;9.314;2024-02-26T03:15:40;57.03;;;3.90;;
1308;SDS011;647;48.840;9.314;2024-02-26T03:18:07;57.67;;;3.83;;
1308;SDS011;647;48.840;9.314;2024-02-26T03:20:34;57.03;;;4.00;;
1308;SDS011;647;48.840;9.314;2024-02-26T03:23:02;56.90;;;3.50;;
1308;SDS011;647;48.840;9.314;2024-02-26T03:25:29;59.57;;;3.90;;
1308;SDS011;647;48.840;9.314;2024-02-26T03:27:56;55.60;;;2.90;;
1308;SDS011;647;48.840;9.314;2024-02-26T03:30:24;57.47;;;3.60;;
1308;SDS011;647;48.840;9.314;2024-02-26T03:32:52;56.87;;;3.30;;
1308;SDS011;647;48.840;9.314;2024-02-26T03:35:19;58.07;;;3.10;;
1308;SDS011;647;48.840;9.314;2024-02-26T03:37:46;56.83;;;3.20;;
1308;SDS011;647;48.840;9.314;2024-02-26T03:40:15;56.57;;;3.07;;
1308;SDS011;647;48.840;9.314;2024-02-26T03:42:44;57.03;;;3.03;;
1308;SDS011;647;48.840;9.314;2024-02-26T03:45:11;57.50;;;3.70;;
1308;SDS011;647;48.840;9.314;2024-02-26T03:47:39;60.50;;;4.20;;
1308;SDS011;647;48.840;9.314;2024-02-26T03:50:07;57.10;;;3.37;;
1308;SDS011;647;48.840;9.314;2024-02-26T03:52:34;57.90;;;3.97;;
1308;SDS011;647;48.840;9.314;2024-02-26T03:55:01;56.77;;;3.40;;
1308;SDS011;647;48.840;9.314;2024-02-26T03:57:28;57.87;;;3.40;;
1308;SDS011;647;48.840;9.314;2024-02-26T03:59:55;56.40;;;3.53;;
1308;SDS011;647;48.840;9.314;2024-02-26T04:02:22;56.60;;;3.30;;
1308;SDS011;647;48.840;9.314;2024-02-26T04:04:51;56.13;;;3.63;;
1308;SDS011;647;48.840;9.314;2024-02-26T04:07:19;56.47;;;2.90;;
1308;SDS011;647;48.840;9.314;2024-02-26T04:09:46;57.20;;;3.83;;
1308;SDS011;647;48.840;9.314;2024-02-26T04:12:13;56.63;;;3.40;;
1308;SDS011;647;48.840;9.314;2024-02-26T04:14:40;57.37;;;3.90;;
1308;SDS011;647;48.840;9.314;2024-02-26T04:17:07;58.20;;;4.03;;
1308;SDS011;647;48.840;9.314;2024-02-26T04:19:36;56.30;;;3.47;;
1308;SDS011;647;48.840;9.314;2024-02-26T04:22:04;57.33;;;3.77;;
1308;SDS011;647;48.840;9.314;2024-02-26T04:24:31;56.87;;;3.67;;
1308;SDS011;647;48.840;9.314;2024-02-26T04:26:58;56.67;;;3.10;;
1308;SDS011;647;48.840;9.314;2024-02-26T04:29:25;57.10;;;3.53;;
1308;SDS011;647;48.840;9.314;2024-02-26T04:31:52;57.57;;;3.57;;
1308;SDS011;647;48.840;9.314;2024-02-26T04:34:19;56.60;;;3.20;;
1308;SDS011;647;48.840;9.314;2024-02-26T04:36:47;56.90;;;3.47;;
1308;SDS011;647;48.840;9.314;2024-02-26T04:39:15;57.97;;;3.77;;
1308;SDS011;647;48.840;9.314;2024-02-26T04:41:42;57.30;;;3.70;;
1308;SDS011;647;48.840;9.314;2024-02-26T04:44:09;56.10;;;3.33;;
1308;SDS011;647;48.840;9.314;2024-02-26T04:46:36;56.83;;;3.50;;
1308;SDS011;647;48.840;9.314;2024-02-26T04:49:03;56.20;;;3.30;;
1308;SDS011;647;48.840;9.314;2024-02-26T04:51:31;56.27;;;3.40;;
1308;SDS011;647;48.840;9.314;2024-02-26T04:53:58;56.50;;;3.40;;
1308;SDS011;647;48.840;9.314;2024-02-26T04:56:26;57.27;;;3.70;;
1308;SDS011;647;48.840;9.314;2024-02-26T05:01:57;57.07;;;3.60;;
1308;SDS011;647;48.840;9.314;2024-02-26T05:04:24;56.70;;;3.67;;
1308;SDS011;647;48.840;9.314;2024-02-26T05:06:51;57.07;;;3.40;;
1308;SDS011;647;48.840;9.314;2024-02-26T05:09:18;56.57;;;3.70;;
1308;SDS011;647;48.840;9.314;2024-02-26T05:11:47;56.50;;;3.77;;
1308;SDS011;647;48.840;9.314;2024-02-26T05:14:14;57.67;;;4.00;;
1308;SDS011;647;48.840;9.314;2024-02-26T05:16:41;57.53;;;4.13;;
1308;SDS011;647;48.840;9.314;2024-02-26T05:19:08;56.90;;;4.07;;
1308;SDS011;647;48.840;9.314;2024-02-26T05:21:35;57.87;;;3.60;;
1308;SDS011;647;48.840;9.314;2024-02-26T05:24:02;57.83;;;3.80;;
1308;SDS011;647;48.840;9.314;2024-02-26T05:26:29;59.37;;;3.73;;
1308;SDS011;647;48.840;9.314;2024-02-26T05:28:58;57.87;;;4.23;;
1308;SDS011;647;48.840;9.314;2024-02-26T05:31:26;57.03;;;3.97;;
1308;SDS011;647;48.840;9.314;2024-02-26T05:33:53;58.00;;;3.70;;
1308;SDS011;647;48.840;9.314;2024-02-26T05:36:21;56.70;;;3.47;;
1308;SDS011;647;48.840;9.314;2024-02-26T05:38:48;56.30;;;3.30;;
1308;SDS011;647;48.840;9.314;2024-02-26T05:41:15;59.50;;;3.80;;
1308;SDS011;647;48.840;9.314;2024-02-26T05:43:47;57.90;;;3.97;;
1308;SDS011;647;48.840;9.314;2024-02-26T05:46:17;58.37;;;3.90;;
1308;SDS011;647;48.840;9.314;2024-02-26T05:48:44;56.60;;;3.87;;
1308;SDS011;647;48.840;9.314;2024-02-26T05:51:11;58.27;;;3.60;;
1308;SDS011;647;48.840;9.314;2024-02-26T05:53:38;56.77;;;3.60;;
1308;SDS011;647;48.840;9.314;2024-02-26T05:56:05;56.67;;;3.30;;
1308;SDS011;647;48.840;9.314;2024-02-26T05:58:32;56.03;;;3.00;;
1308;SDS011;647;48.840;9.314;2024-02-26T06:01:00;57.10;;;3.30;;
1308;SDS011;647;48.840;9.314;2024-02-26T06:03:28;57.70;;;3.60;;
1308;SDS011;647;48.840;9.314;2024-02-26T06:05:56;57.13;;;3.70;;
1308;SDS011;647;48.840;9.314;2024-02-26T06:08:23;59.23;;;3.40;;
1308;SDS011;647;48.840;9.314;2024-02-26T06:10:50;56.60;;;3.00;;
1308;SDS011;647;48.840;9.314;2024-02-26T06:13:17;56.30;;;3.43;;
1308;SDS011;647;48.840;9.314;2024-02-26T06:15:44;57.27;;;3.67;;
1308;SDS011;647;48.840;9.314;2024-02-26T06:18:11;57.00;;;4.37;;
1308;SDS011;647;48.840;9.314;2024-02-26T06:20:39;58.10;;;3.60;;
1308;SDS011;647;48.840;9.314;2024-02-26T06:23:07;58.30;;;3.83;;
1308;SDS011;647;48.840;9.314;2024-02-26T06:25:35;58.90;;;4.37;;
1308;SDS011;647;48.840;9.314;2024-02-26T06:28:02;57.80;;;4.60;;
1308;SDS011;647;48.840;9.314;2024-02-26T06:30:29;58.77;;;4.20;;
1308;SDS011;647;48.840;9.314;2024-02-26T06:32:56;58.00;;;4.70;;
1308;SDS011;647;48.840;9.314;2024-02-26T06:35:24;59.60;;;4.33;;
1308;SDS011;647;48.840;9.314;2024-02-26T06:37:52;56.60;;;3.93;;
1308;SDS011;647;48.840;9.314;2024-02-26T06:40:19;57.90;;;4.50;;
1308;SDS011;647;48.840;9.314;2024-02-26T06:42:46;57.57;;;4.90;;
1308;SDS011;647;48.840;9.314;2024-02-26T06:45:15;58.03;;;4.30;;
1308;SDS011;647;48.840;9.314;2024-02-26T06:47:43;58.27;;;4.27;;
1308;SDS011;647;48.840;9.314;2024-02-26T06:50:11;59.60;;;5.20;;
1308;SDS011;647;48.840;9.314;2024-02-26T06:52:38;57.20;;;4.43;;
1308;SDS011;647;48.840;9.314;2024-02-26T06:55:07;57.93;;;4.70;;
1308;SDS011;647;48.840;9.314;2024-02-26T06:57:34;57.97;;;4.40;;
1308;SDS011;647;48.840;9.314;2024-02-26T07:00:01;57.77;;;4.13;;
1308;SDS011;647;48.840;9.314;2024-02-26T07:02:29;58.43;;;5.10;;
1308;SDS011;647;48.840;9.314;2024-02-26T07:04:56;61.00;;;5.10;;
1308;SDS011;647;48.840;9.314;2024-02-26T07:07:23;58.23;;;4.47;;
1308;SDS011;647;48.840;9.314;2024-02-26T07:09:50;59.13;;;4.60;;
1308;SDS011;647;48.840;9.314;2024-02-26T07:12:19;57.67;;;4.00;;
1308;SDS011;647;48.840;9.314;2024-02-26T07:14:46;59.47;;;4.97;;
1308;SDS011;647;48.840;9.314;2024-02-26T07:17:13;57.17;;;4.00;;
1308;SDS011;647;48.840;9.314;2024-02-26T07:19:41;59.20;;;4.07;;
1308;SDS011;647;48.840;9.314;2024-02-26T07:22:08;58.30;;;4.83;;
1308;SDS011;647;48.840;9.314;2024-02-26T07:24:35;58.93;;;4.63;;
1308;SDS011;647;48.840;9.314;2024-02-26T07:27:02;58.70;;;4.30;;
1308;SDS011;647;48.840;9.314;2024-02-26T07:29:31;57.70;;;4.37;;
1308;SDS011;647;48.840;9.314;2024-02-26T07:31:58;58.80;;;4.77;;
1308;SDS011;647;48.840;9.314;2024-02-26T07:34:25;59.00;;;5.00;;
1308;SDS011;647;48.840;9.314;2024-02-26T07:36:54;58.30;;;5.10;;
1308;SDS011;647;48.840;9.314;2024-02-26T07:39:21;59.97;;;4.67;;
1308;SDS011;647;48.840;9.314;2024-02-26T07:41:48;57.70;;;4.17;;
1308;SDS011;647;48.840;9.314;2024-02-26T07:44:17;58.43;;;4.30;;
1308;SDS011;647;48.840;9.314;2024-02-26T07:46:46;58.40;;;4.53;;
1308;SDS011;647;48.840;9.314;2024-02-26T07:49:13;59.60;;;4.70;;
1308;SDS011;647;48.840;9.314;2024-02-26T07:51:40;61.03;;;5.17;;
1308;SDS011;647;48.840;9.314;2024-02-26T07:54:07;58.23;;;4.63;;
1308;SDS011;647;48.840;9.314;2024-02-26T07:56:34;59.20;;;4.47;;
1308;SDS011;647;48.840;9.314;2024-02-26T07:59:01;57.30;;;4.33;;
1308;SDS011;647;48.840;9.314;2024-02-26T08:01:29;60.97;;;5.60;;
1308;SDS011;647;48.840;9.314;2024-02-26T08:03:57;57.70;;;4.60;;
1308;SDS011;647;48.840;9.314;2024-02-26T08:06:24;58.50;;;4.83;;
1308;SDS011;647;48.840;9.314;2024-02-26T08:08:52;59.17;;;4.30;;
1308;SDS011;647;48.840;9.314;2024-02-26T08:11:19;59.60;;;4.70;;
1308;SDS011;647;48.840;9.314;2024-02-26T08:13:46;58.07;;;4.83;;
1308;SDS011;647;48.840;9.314;2024-02-26T08:16:13;57.63;;;3.90;;
1308;SDS011;647;48.840;9.314;2024-02-26T08:18:40;57.10;;;4.10;;
1308;SDS011;647;48.840;9.314;2024-02-26T08:21:09;61.20;;;4.70;;
1308;SDS011;647;48.840;9.314;2024-02-26T08:23:36;58.73;;;4.17;;
1308;SDS011;647;48.840;9.314;2024-02-26T08:26:03;57.63;;;4.50;;
1308;SDS011;647;48.840;9.314;2024-02-26T08:28:32;58.03;;;4.40;;
1308;SDS011;647;48.840;9.314;2024-02-26T08:30:59;58.10;;;4.23;;
1308;SDS011;647;48.840;9.314;2024-02-26T08:33:26;58.53;;;4.10;;
1308;SDS011;647;48.840;9.314;2024-02-26T08:35:53;58.10;;;4.17;;
1308;SDS011;647;48.840;9.314;2024-02-26T08:38:22;57.07;;;3.93;;
1308;SDS011;647;48.840;9.314;2024-02-26T08:40:49;59.10;;;4.60;;
1308;SDS011;647;48.840;9.314;2024-02-26T08:43:16;57.70;;;3.67;;
1308;SDS011;647;48.840;9.314;2024-02-26T08:45:44;57.73;;;3.70;;
1308;SDS011;647;48.840;9.314;2024-02-26T08:48:11;57.23;;;3.90;;
1308;SDS011;647;48.840;9.314;2024-02-26T08:50:38;58.20;;;4.70;;
1308;SDS011;647;48.840;9.314;2024-02-26T08:53:05;59.80;;;4.70;;
1308;SDS011;647;48.840;9.314;2024-02-26T08:55:34;58.63;;;4.10;;
1308;SDS011;647;48.840;9.314;2024-02-26T08:58:01;57.90;;;4.00;;
1308;SDS011;647;48.840;9.314;2024-02-26T09:00:28;56.27;;;3.70;;
1308;SDS011;647;48.840;9.314;2024-02-26T09:02:56;57.70;;;3.83;;
1308;SDS011;647;48.840;9.314;2024-02-26T09:05:23;58.07;;;4.63;;
1308;SDS011;647;48.840;9.314;2024-02-26T09:07:50;58.03;;;4.63;;
1308;SDS011;647;48.840;9.314;2024-02-26T09:10:17;57.50;;;3.90;;
1308;SDS011;647;48.840;9.314;2024-02-26T09:12:45;57.93;;;4.60;;
1308;SDS011;647;48.840;9.314;2024-02-26T09:15:13;57.20;;;3.83;;
1308;SDS011;647;48.840;9.314;2024-02-26T09:17:40;57.87;;;4.90;;
1308;SDS011;647;48.840;9.314;2024-02-26T09:20:07;56.37;;;3.43;;
1308;SDS011;647;48.840;9.314;2024-02-26T09:22:35;57.43;;;4.07;;
1308;SDS011;647;48.840;9.314;2024-02-26T09:25:03;56.87;;;3.90;;
1308;SDS011;647;48.840;9.314;2024-02-26T09:27:31;57.20;;;4.10;;
1308;SDS011;647;48.840;9.314;2024-02-26T09:30:00;56.10;;;3.10;;
1308;SDS011;647;48.840;9.314;2024-02-26T09:32:28;59.47;;;4.27;;
1308;SDS011;647;48.840;9.314;2024-02-26T09:34:55;56.83;;;3.30;;
1308;SDS011;647;48.840;9.314;2024-02-26T09:37:22;57.67;;;4.03;;
1308;SDS011;647;48.840;9.314;2024-02-26T09:39:49;61.00;;;4.80;;
1308;SDS011;647;48.840;9.314;2024-02-26T09:42:17;57.53;;;4.10;;
1308;SDS011;647;48.840;9.314;2024-02-26T09:44:45;56.77;;;3.67;;
1308;SDS011;647;48.840;9.314;2024-02-26T09:47:14;58.27;;;4.23;;
1308;SDS011;647;48.840;9.314;2024-02-26T09:49:42;57.73;;;4.43;;
1308;SDS011;647;48.840;9.314;2024-02-26T09:52:09;57.73;;;3.97;;
1308;SDS011;647;48.840;9.314;2024-02-26T09:54:36;57.53;;;4.23;;
1308;SDS011;647;48.840;9.314;2024-02-26T09:57:03;58.17;;;4.93;;
1308;SDS011;647;48.840;9.314;2024-02-26T09:59:36;61.93;;;6.00;;
1308;SDS011;647;48.840;9.314;2024-02-26T10:02:06;58.37;;;4.33;;
1308;SDS011;647;48.840;9.314;2024-02-26T10:04:37;60.07;;;4.60;;
1308;SDS011;647;48.840;9.314;2024-02-26T10:07:05;61.37;;;5.30;;
1308;SDS011;647;48.840;9.314;2024-02-26T10:09:36;57.17;;;4.07;;
1308;SDS011;647;48.840;9.314;2024-02-26T10:12:03;58.57;;;4.57;;
1308;SDS011;647;48.840;9.314;2024-02-26T10:14:31;57.80;;;4.50;;
1308;SDS011;647;48.840;9.314;2024-02-26T10:16:58;57.37;;;4.00;;
1308;SDS011;647;48.840;9.314;2024-02-26T10:19:26;57.90;;;4.17;;
1308;SDS011;647;48.840;9.314;2024-02-26T10:21:57;58.77;;;4.03;;
1308;SDS011;647;48.840;9.314;2024-02-26T10:24:24;59.10;;;4.20;;
1308;SDS011;647;48.840;9.314;2024-02-26T10:26:51;58.53;;;4.00;;
1308;SDS011;647;48.840;9.314;2024-02-26T10:29:18;56.83;;;3.33;;
1308;SDS011;647;48.840;9.314;2024-02-26T10:31:46;57.57;;;3.73;;
1308;SDS011;647;48.840;9.314;2024-02-26T10:34:14;57.83;;;3.53;;
1308;SDS011;647;48.840;9.314;2024-02-26T10:36:41;57.77;;;3.50;;
1308;SDS011;647;48.840;9.314;2024-02-26T10:39:11;57.17;;;3.60;;
1308;SDS011;647;48.840;9.314;2024-02-26T10:41:39;58.37;;;4.30;;
1308;SDS011;647;48.840;9.314;2024-02-26T10:44:08;57.57;;;3.47;;
1308;SDS011;647;48.840;9.314;2024-02-26T10:46:35;56.80;;;3.30;;
1308;SDS011;647;48.840;9.314;2024-02-26T10:49:03;57.20;;;3.50;;
1308;SDS011;647;48.840;9.314;2024-02-26T10:51:33;56.57;;;3.40;;
1308;SDS011;647;48.840;9.314;2024-02-26T10:54:02;57.87;;;3.50;;
1308;SDS011;647;48.840;9.314;2024-02-26T10:56:33;57.80;;;3.10;;
1308;SDS011;647;48.840;9.314;2024-02-26T10:59:02;57.40;;;3.40;;
1308;SDS011;647;48.840;9.314;2024-02-26T11:01:30;57.63;;;3.50;;
1308;SDS011;647;48.840;9.314;2024-02-26T11:03:57;57.03;;;3.60;;
1308;SDS011;647;48.840;9.314;2024-02-26T11:06:26;59.13;;;4.10;;
1308;SDS011;647;48.840;9.314;2024-02-26T11:08:54;56.60;;;3.00;;
1308;SDS011;647;48.840;9.314;2024-02-26T11:11:21;56.90;;;3.50;;
1308;SDS011;647;48.840;9.314;2024-02-26T11:13:50;56.60;;;3.00;;
1308;SDS011;647;48.840;9.314;2024-02-26T11:16:18;56.20;;;2.90;;
1308;SDS011;647;48.840;9.314;2024-02-26T11:18:46;56.70;;;3.10;;
1308;SDS011;647;48.840;9.314;2024-02-26T11:21:15;56.30;;;3.10;;
1308;SDS011;647;48.840;9.314;2024-02-26T11:23:43;58.83;;;3.20;;
1308;SDS011;647;48.840;9.314;2024-02-26T11:26:11;56.47;;;2.90;;
1308;SDS011;647;48.840;9.314;2024-02-26T11:28:38;56.57;;;3.63;;
1308;SDS011;647;48.840;9.314;2024-02-26T11:31:07;57.07;;;3.13;;
1308;SDS011;647;48.840;9.314;2024-02-26T11:33:34;56.67;;;3.20;;
1308;SDS011;647;48.840;9.314;2024-02-26T11:36:02;57.80;;;3.10;;
1308;SDS011;647;48.840;9.314;2024-02-26T11:38:29;56.60;;;3.30;;
1308;SDS011;647;48.840;9.314;2024-02-26T11:40:56;56.50;;;3.43;;
1308;SDS011;647;48.840;9.314;2024-02-26T11:46:13;56.07;;;3.10;;
1308;SDS011;647;48.840;9.314;2024-02-26T11:48:51;56.90;;;3.03;;
1308;SDS011;647;48.840;9.314;2024-02-26T11:51:18;57.20;;;3.20;;
1308;SDS011;647;48.840;9.314;2024-02-26T11:53:51;56.40;;;2.90;;
1308;SDS011;647;48.840;9.314;2024-02-26T11:56:22;58.10;;;3.03;;
1308;SDS011;647;48.840;9.314;2024-02-26T11:58:53;58.80;;;3.00;;
1308;SDS011;647;48.840;9.314;2024-02-26T12:01:43;56.37;;;3.00;;
1308;SDS011;647;48.840;9.314;2024-02-26T12:04:13;57.30;;;3.23;;
1308;SDS011;647;48.840;9.314;2024-02-26T12:06:42;56.40;;;2.67;;
1308;SDS011;647;48.840;9.314;2024-02-26T12:09:09;56.50;;;2.90;;
1308;SDS011;647;48.840;9.314;2024-02-26T12:11:38;56.80;;;3.20;;
1308;SDS011;647;48.840;9.314;2024-02-26T12:14:05;56.77;;;2.77;;
1308;SDS011;647;48.840;9.314;2024-02-26T12:16:37;57.60;;;2.97;;
1308;SDS011;647;48.840;9.314;2024-02-26T12:19:06;56.10;;;2.53;;
1308;SDS011;647;48.840;9.314;2024-02-26T12:21:34;55.93;;;2.47;;
1308;SDS011;647;48.840;9.314;2024-02-26T12:24:11;56.00;;;2.60;;
1308;SDS011;647;48.840;9.314;2024-02-26T12:26:38;60.00;;;3.30;;
1308;SDS011;647;48.840;9.314;2024-02-26T12:29:06;56.07;;;2.60;;
1308;SDS011;647;48.840;9.314;2024-02-26T12:31:33;56.93;;;3.00;;
1308;SDS011;647;48.840;9.314;2024-02-26T12:34:02;56.03;;;2.63;;
1308;SDS011;647;48.840;9.314;2024-02-26T12:36:30;56.30;;;2.83;;
1308;SDS011;647;48.840;9.314;2024-02-26T12:38:59;56.20;;;2.83;;
1308;SDS011;647;48.840;9.314;2024-02-26T12:41:27;57.67;;;2.70;;
1308;SDS011;647;48.840;9.314;2024-02-26T12:43:55;57.40;;;3.13;;
1308;SDS011;647;48.840;9.314;2024-02-26T12:46:22;56.60;;;2.80;;
1308;SDS011;647;48.840;9.314;2024-02-26T12:48:49;56.60;;;3.00;;
1308;SDS011;647;48.840;9.314;2024-02-26T12:51:16;57.67;;;2.93;;
1308;SDS011;647;48.840;9.314;2024-02-26T12:53:45;56.00;;;2.70;;
1308;SDS011;647;48.840;9.314;2024-02-26T12:56:15;56.77;;;2.80;;
1308;SDS011;647;48.840;9.314;2024-02-26T12:58:42;56.90;;;2.73;;
1308;SDS011;647;48.840;9.314;2024-02-26T13:01:13;56.77;;;2.70;;
1308;SDS011;647;48.840;9.314;2024-02-26T13:03:40;56.50;;;2.63;;
1308;SDS011;647;48.840;9.314;2024-02-26T13:06:08;56.70;;;3.20;;
1308;SDS011;647;48.840;9.314;2024-02-26T13:08:35;56.03;;;2.67;;
1308;SDS011;647;48.840;9.314;2024-02-26T13:11:03;57.17;;;3.07;;
1308;SDS011;647;48.840;9.314;2024-02-26T13:13:31;57.57;;;3.00;;
1308;SDS011;647;48.840;9.314;2024-02-26T13:16:01;58.60;;;3.43;;
1308;SDS011;647;48.840;9.314;2024-02-26T13:18:29;56.83;;;2.53;;
1308;SDS011;647;48.840;9.314;2024-02-26T13:21:06;56.63;;;2.97;;
1308;SDS011;647;48.840;9.314;2024-02-26T13:23:33;55.93;;;2.70;;
1308;SDS011;647;48.840;9.314;2024-02-26T13:26:00;56.70;;;2.80;;
1308;SDS011;647;48.840;9.314;2024-02-26T13:28:29;56.17;;;2.60;;
1308;SDS011;647;48.840;9.314;2024-02-26T13:30:56;56.37;;;2.80;;
1308;SDS011;647;48.840;9.314;2024-02-26T13:33:25;57.03;;;2.50;;
1308;SDS011;647;48.840;9.314;2024-02-26T13:35:53;56.00;;;2.30;;
1308;SDS011;647;48.840;9.314;2024-02-26T13:38:20;56.03;;;2.17;;
1308;SDS011;647;48.840;9.314;2024-02-26T13:40:47;55.57;;;2.20;;
1308;SDS011;647;48.840;9.314;2024-02-26T13:43:14;56.10;;;2.23;;
1308;SDS011;647;48.840;9.314;2024-02-26T13:45:42;55.90;;;2.10;;
1308;SDS011;647;48.840;9.314;2024-02-26T13:48:10;55.80;;;2.30;;
1308;SDS011;647;48.840;9.314;2024-02-26T13:50:37;56.10;;;2.17;;
1308;SDS011;647;48.840;9.314;2024-02-26T13:53:04;56.07;;;2.40;;
1308;SDS011;647;48.840;9.314;2024-02-26T13:55:31;56.00;;;2.30;;
1308;SDS011;647;48.840;9.314;2024-02-26T13:57:59;55.90;;;2.20;;
1308;SDS011;647;48.840;9.314;2024-02-26T14:00:27;60.63;;;2.40;;
1308;SDS011;647;48.840;9.314;2024-02-26T14:02:55;55.80;;;2.20;;
1308;SDS011;647;48.840;9.314;2024-02-26T14:05:22;55.50;;;2.10;;
1308;SDS011;647;48.840;9.314;2024-02-26T14:07:50;55.80;;;2.03;;
1308;SDS011;647;48.840;9.314;2024-02-26T14:10:17;57.03;;;2.60;;
1308;SDS011;647;48.840;9.314;2024-02-26T14:12:44;55.40;;;2.00;;
1308;SDS011;647;48.840;9.314;2024-02-26T14:15:11;55.90;;;2.30;;
1308;SDS011;647;48.840;9.314;2024-02-26T14:17:38;56.43;;;2.33;;
1308;SDS011;647;48.840;9.314;2024-02-26T14:20:08;56.10;;;2.30;;
1308;SDS011;647;48.840;9.314;2024-02-26T14:22:35;56.00;;;1.80;;
1308;SDS011;647;48.840;9.314;2024-02-26T14:25:02;55.40;;;1.97;;
1308;SDS011;647;48.840;9.314;2024-02-26T14:27:30;55.60;;;2.10;;
1308;SDS011;647;48.840;9.314;2024-02-26T14:29:57;55.47;;;2.00;;
1308;SDS011;647;48.840;9.314;2024-02-26T14:32:24;55.93;;;2.00;;
1308;SDS011;647;48.840;9.314;2024-02-26T14:34:51;56.40;;;2.30;;
1308;SDS011;647;48.840;9.314;2024-02-26T14:37:19;55.57;;;2.00;;
1308;SDS011;647;48.840;9.314;2024-02-26T14:39:46;56.00;;;2.33;;
1308;SDS011;647;48.840;9.314;2024-02-26T14:42:16;55.93;;;2.33;;
1308;SDS011;647;48.840;9.314;2024-02-26T14:44:43;55.40;;;2.27;;
1308;SDS011;647;48.840;9.314;2024-02-26T14:47:12;56.10;;;2.50;;
1308;SDS011;647;48.840;9.314;2024-02-26T14:49:39;55.20;;;2.17;;
1308;SDS011;647;48.840;9.314;2024-02-26T14:52:06;56.47;;;2.43;;
1308;SDS011;647;48.840;9.314;2024-02-26T14:54:35;56.43;;;2.20;;
1308;SDS011;647;48.840;9.314;2024-02-26T14:57:04;55.87;;;2.00;;
1308;SDS011;647;48.840;9.314;2024-02-26T14:59:31;56.17;;;2.67;;
1308;SDS011;647;48.840;9.314;2024-02-26T15:01:58;56.23;;;2.73;;
1308;SDS011;647;48.840;9.314;2024-02-26T15:04:26;56.20;;;2.53;;
1308;SDS011;647;48.840;9.314;2024-02-26T15:06:53;55.70;;;2.30;;
1308;SDS011;647;48.840;9.314;2024-02-26T15:09:20;57.80;;;2.67;;
1308;SDS011;647;48.840;9.314;2024-02-26T15:11:48;55.93;;;2.53;;
1308;SDS011;647;48.840;9.314;2024-02-26T15:14:15;56.77;;;2.70;;
1308;SDS011;647;48.840;9.314;2024-02-26T15:16:42;56.50;;;2.90;;
1308;SDS011;647;48.840;9.314;2024-02-26T15:19:10;57.63;;;3.00;;
1308;SDS011;647;48.840;9.314;2024-02-26T15:21:41;56.27;;;2.70;;
1308;SDS011;647;48.840;9.314;2024-02-26T15:24:09;58.37;;;2.97;;
1308;SDS011;647;48.840;9.314;2024-02-26T15:26:36;56.30;;;2.80;;